Time;durP1;ratioP1;P1;durP2;ratioP2;P2;SDS_P1;SDS_P2;PMS_P1;PMS_P2;Temp;Humidity;BMP_temperature;BMP_pressure;BME280_temperature;BME280_humidity;BME280_pressure;Samples;Min_cycle;Max_cycle;Signal;HPM_P1;HPM_P2
2023/05/12 00:01:43;;;;;;;16.02;12.68;;;10.70;99.90;;;;;;5030300;28;20101;-41
2023/05/12 00:04:09;;;;;;;14.82;11.35;;;10.70;99.90;;;;;;5033010;28;20094;-40
2023/05/12 00:06:34;;;;;;;15.73;10.45;;;10.60;99.90;;;;;;5032370;28;20049;-46
2023/05/12 00:09:00;;;;;;;12.02;9.20;;;10.70;99.90;;;;;;5015105;28;20052;-37
2023/05/12 00:11:25;;;;;;;13.82;9.68;;;10.70;99.90;;;;;;5032368;28;20044;-43
2023/05/12 00:13:53;;;;;;;11.93;8.65;;;10.70;99.90;;;;;;5032366;28;20362;-38
2023/05/12 00:16:19;;;;;;;12.18;8.48;;;10.70;99.90;;;;;;5032446;28;20037;-40
2023/05/12 00:18:45;;;;;;;12.32;9.07;;;10.70;99.90;;;;;;5031473;28;20409;-45
2023/05/12 00:21:11;;;;;;;10.15;8.10;;;10.70;99.90;;;;;;5031878;28;20097;-45
2023/05/12 00:23:37;;;;;;;11.23;8.20;;;10.70;99.90;;;;;;5032209;28;20045;-41
2023/05/12 00:26:03;;;;;;;9.32;7.65;;;10.80;99.90;;;;;;5032316;28;20057;-41
2023/05/12 00:28:28;;;;;;;10.70;8.45;;;10.70;99.90;;;;;;5031876;28;20109;-42
2023/05/12 00:30:55;;;;;;;12.23;8.60;;;10.70;99.90;;;;;;5029727;28;20065;-42
2023/05/12 00:33:21;;;;;;;10.05;7.63;;;10.70;99.90;;;;;;5022547;28;20152;-42
2023/05/12 00:35:47;;;;;;;10.98;7.63;;;10.70;99.90;;;;;;5014957;28;20585;-40
2023/05/12 00:38:12;;;;;;;10.15;7.25;;;10.80;99.90;;;;;;5035365;28;20049;-43
2023/05/12 00:40:38;;;;;;;11.18;7.65;;;10.80;99.90;;;;;;5034080;28;20098;-37
2023/05/12 00:43:04;;;;;;;11.20;7.82;;;10.80;99.90;;;;;;5016336;28;20053;-38
2023/05/12 00:45:30;;;;;;;12.20;9.25;;;10.80;99.90;;;;;;5016539;28;20056;-45
2023/05/12 00:47:56;;;;;;;13.50;9.93;;;10.80;99.90;;;;;;5015674;28;20057;-35
2023/05/12 00:50:22;;;;;;;13.68;10.63;;;10.80;99.90;;;;;;5014592;28;20412;-39
2023/05/12 00:52:48;;;;;;;17.38;12.10;;;10.80;99.90;;;;;;5015468;28;20068;-44
2023/05/12 00:55:14;;;;;;;18.05;12.82;;;10.80;99.90;;;;;;5016030;28;20283;-41
2023/05/12 00:57:41;;;;;;;19.25;12.45;;;10.80;99.90;;;;;;5015393;28;20054;-41
2023/05/12 01:00:07;;;;;;;16.48;12.25;;;10.80;99.90;;;;;;5014752;28;20049;-46
2023/05/12 01:02:33;;;;;;;18.75;12.52;;;10.80;99.90;;;;;;5015238;28;20057;-40
2023/05/12 01:04:59;;;;;;;17.42;13.30;;;10.80;99.90;;;;;;5015789;28;20053;-38
2023/05/12 01:07:26;;;;;;;20.90;13.15;;;10.80;99.90;;;;;;5010449;28;20046;-49
2023/05/12 01:09:55;;;;;;;16.73;12.85;;;10.80;99.90;;;;;;5014591;28;20050;-39
2023/05/12 01:12:22;;;;;;;21.02;13.73;;;10.80;99.90;;;;;;5015829;28;20049;-45
2023/05/12 01:14:50;;;;;;;19.13;13.30;;;10.80;99.90;;;;;;5014578;28;20057;-42
2023/05/12 01:17:19;;;;;;;19.63;13.13;;;10.90;99.90;;;;;;5014944;28;20448;-57
2023/05/12 01:19:55;;;;;;;18.27;13.40;;;10.90;99.90;;;;;;5014137;28;20057;-42
2023/05/12 01:22:21;;;;;;;21.75;14.10;;;10.90;99.90;;;;;;5015362;28;20110;-44
2023/05/12 01:24:54;;;;;;;23.92;15.68;;;10.90;99.90;;;;;;5015556;28;20057;-44
2023/05/12 01:27:22;;;;;;;21.90;15.27;;;10.90;99.90;;;;;;5015915;28;20056;-45
2023/05/12 01:29:50;;;;;;;23.10;16.50;;;10.90;99.90;;;;;;5014252;28;20047;-45
2023/05/12 01:32:16;;;;;;;27.88;18.27;;;10.90;99.90;;;;;;5012732;28;20049;-44
2023/05/12 01:34:42;;;;;;;25.63;18.45;;;10.90;99.90;;;;;;5002601;28;20389;-38
2023/05/12 01:37:08;;;;;;;30.50;19.73;;;11.00;99.90;;;;;;5034985;28;20056;-38
2023/05/12 01:39:35;;;;;;;31.50;22.75;;;11.00;99.90;;;;;;5020573;28;20045;-47
2023/05/12 01:42:02;;;;;;;35.65;24.20;;;11.00;99.90;;;;;;5023081;28;20539;-51
2023/05/12 01:44:28;;;;;;;37.90;24.17;;;11.00;99.90;;;;;;5014984;28;20110;-39
2023/05/12 01:46:53;;;;;;;38.30;25.38;;;11.10;99.90;;;;;;5022206;28;20045;-39
2023/05/12 01:49:19;;;;;;;38.75;24.05;;;11.00;99.90;;;;;;5033018;28;20284;-44
2023/05/12 01:51:44;;;;;;;35.10;24.33;;;11.10;99.90;;;;;;5034908;28;20112;-43
2023/05/12 01:54:10;;;;;;;41.58;26.13;;;11.10;99.90;;;;;;5034754;28;20099;-38
2023/05/12 01:56:36;;;;;;;37.25;24.20;;;11.10;99.90;;;;;;5034816;28;20087;-45
2023/05/12 01:59:02;;;;;;;40.83;25.33;;;11.10;99.90;;;;;;5033375;28;20052;-47
2023/05/12 02:01:27;;;;;;;36.75;24.23;;;11.10;99.90;;;;;;5013864;28;20056;-39
2023/05/12 02:03:56;;;;;;;35.20;24.48;;;11.10;99.90;;;;;;5008153;28;20438;-39
2023/05/12 02:06:22;;;;;;;41.30;25.02;;;11.10;99.90;;;;;;5013514;28;20042;-40
2023/05/12 02:08:48;;;;;;;39.78;25.98;;;11.20;99.90;;;;;;5011824;28;20045;-42
2023/05/12 02:11:14;;;;;;;42.13;26.20;;;11.10;99.90;;;;;;5014939;28;20046;-38
2023/05/12 02:13:43;;;;;;;34.38;23.70;;;11.10;99.90;;;;;;5014599;28;20376;-41
2023/05/12 02:16:09;;;;;;;37.63;25.00;;;11.10;99.90;;;;;;5014670;28;20481;-44
2023/05/12 02:18:35;;;;;;;41.92;25.40;;;11.20;99.90;;;;;;5013231;28;20160;-44
2023/05/12 02:21:01;;;;;;;37.72;24.58;;;11.20;99.90;;;;;;5014669;28;20458;-39
2023/05/12 02:23:26;;;;;;;46.53;26.88;;;11.20;99.90;;;;;;5014546;28;20221;-42
2023/05/12 02:25:52;;;;;;;40.65;26.65;;;11.20;99.90;;;;;;5014352;28;20041;-48
2023/05/12 02:28:17;;;;;;;39.28;26.73;;;11.20;99.90;;;;;;5013544;28;20110;-42
2023/05/12 02:30:45;;;;;;;41.67;26.45;;;11.20;99.90;;;;;;5013269;28;20414;-39
2023/05/12 02:33:11;;;;;;;44.72;28.30;;;11.20;99.90;;;;;;5011483;28;20384;-43
2023/05/12 02:35:36;;;;;;;40.35;27.95;;;11.20;99.90;;;;;;5012578;28;20136;-47
2023/05/12 02:38:03;;;;;;;44.35;26.83;;;11.30;99.90;;;;;;5034306;28;20141;-45
2023/05/12 02:40:29;;;;;;;44.80;26.63;;;11.20;99.90;;;;;;5032372;28;20109;-39
2023/05/12 02:42:55;;;;;;;51.05;28.92;;;11.30;99.90;;;;;;5016706;28;20099;-44
2023/05/12 02:45:21;;;;;;;43.75;29.23;;;11.30;99.90;;;;;;5033990;28;20061;-49
2023/05/12 02:47:47;;;;;;;44.85;29.08;;;11.30;99.90;;;;;;5034064;28;20657;-41
2023/05/12 02:50:14;;;;;;;45.75;28.35;;;11.30;99.90;;;;;;5031262;28;20076;-45
2023/05/12 02:52:39;;;;;;;49.88;30.05;;;11.30;99.90;;;;;;5031674;28;20506;-37
2023/05/12 02:55:05;;;;;;;51.92;30.85;;;11.30;99.90;;;;;;5033134;28;20053;-41
2023/05/12 02:57:32;;;;;;;49.60;30.60;;;11.30;99.90;;;;;;5033663;28;20049;-47
2023/05/12 03:00:05;;;;;;;44.75;28.52;;;11.30;99.90;;;;;;5032288;28;20072;-39
2023/05/12 03:02:35;;;;;;;55.47;30.88;;;11.30;99.90;;;;;;5034066;28;20114;-46
2023/05/12 03:05:02;;;;;;;61.72;31.05;;;11.30;99.90;;;;;;5033829;28;20045;-46
2023/05/12 03:07:27;;;;;;;51.63;30.35;;;11.30;99.90;;;;;;5015305;28;20046;-49
2023/05/12 03:09:53;;;;;;;54.97;31.17;;;11.30;99.90;;;;;;5012627;28;20060;-40
2023/05/12 03:12:19;;;;;;;62.75;33.00;;;11.30;99.90;;;;;;5013962;28;20090;-39
2023/05/12 03:14:45;;;;;;;63.03;33.08;;;11.30;99.90;;;;;;5013616;28;20045;-39
2023/05/12 03:17:10;;;;;;;60.40;32.42;;;11.40;99.90;;;;;;5013328;28;20050;-43
2023/05/12 03:19:36;;;;;;;51.13;31.83;;;11.30;99.90;;;;;;5012197;28;20042;-43
2023/05/12 03:22:02;;;;;;;57.10;33.35;;;11.40;99.90;;;;;;5013545;28;20061;-45
2023/05/12 03:24:28;;;;;;;58.05;32.83;;;11.40;99.90;;;;;;5013682;28;20045;-45
2023/05/12 03:26:54;;;;;;;57.00;33.30;;;11.40;99.90;;;;;;5013244;28;20049;-36
2023/05/12 03:29:21;;;;;;;59.13;32.53;;;11.40;99.90;;;;;;5012744;28;20052;-45
2023/05/12 03:31:46;;;;;;;56.00;33.10;;;11.40;99.90;;;;;;5013530;28;20466;-39
2023/05/12 03:34:12;;;;;;;57.22;31.48;;;11.40;99.90;;;;;;5012474;28;20106;-42
2023/05/12 03:36:38;;;;;;;60.58;33.17;;;11.40;99.90;;;;;;5013290;28;20133;-40
2023/05/12 03:39:03;;;;;;;63.55;34.13;;;11.40;99.90;;;;;;5023227;28;20466;-48
2023/05/12 03:41:29;;;;;;;68.07;34.55;;;11.40;99.90;;;;;;5029774;28;20181;-42
2023/05/12 03:43:55;;;;;;;52.35;31.35;;;11.40;99.90;;;;;;5033273;28;20087;-39
2023/05/12 03:46:21;;;;;;;60.17;35.58;;;11.40;99.90;;;;;;5032879;28;20339;-41
2023/05/12 03:48:47;;;;;;;58.90;35.63;;;11.50;99.90;;;;;;5032005;28;20055;-44
2023/05/12 03:51:12;;;;;;;60.53;35.50;;;11.40;99.90;;;;;;5031759;28;20416;-39
2023/05/12 03:53:44;;;;;;;64.20;35.95;;;11.50;99.90;;;;;;5032337;27;20073;-41
2023/05/12 03:56:09;;;;;;;56.00;33.50;;;11.50;99.90;;;;;;5032192;28;20076;-40
2023/05/12 03:58:35;;;;;;;60.08;34.92;;;11.50;99.90;;;;;;5032129;28;20123;-42
2023/05/12 04:01:01;;;;;;;56.95;34.42;;;11.50;99.90;;;;;;5022336;28;20077;-43
2023/05/12 04:03:27;;;;;;;69.88;37.42;;;11.50;99.90;;;;;;5015546;28;20094;-38
2023/05/12 04:06:01;;;;;;;60.90;34.63;;;11.50;99.90;;;;;;5029872;28;20113;-43
2023/05/12 04:08:27;;;;;;;64.55;36.78;;;11.50;99.90;;;;;;5014596;28;20145;-40
2023/05/12 04:11:00;;;;;;;65.05;37.20;;;11.50;99.90;;;;;;5011435;28;20045;-44
2023/05/12 04:13:27;;;;;;;61.17;35.40;;;11.50;99.90;;;;;;5010798;28;20050;-39
2023/05/12 04:15:56;;;;;;;60.03;35.67;;;11.50;99.90;;;;;;5012979;28;20049;-47
2023/05/12 04:18:23;;;;;;;56.97;35.38;;;11.50;99.90;;;;;;5011826;28;20042;-38
2023/05/12 04:20:50;;;;;;;57.80;35.85;;;11.50;99.90;;;;;;5011256;28;20085;-49
2023/05/12 04:23:16;;;;;;;68.55;38.67;;;11.60;99.90;;;;;;5013941;28;20186;-38
2023/05/12 04:25:42;;;;;;;64.32;36.67;;;11.60;99.90;;;;;;5032305;28;20514;-39
2023/05/12 04:28:08;;;;;;;66.60;36.60;;;11.70;99.90;;;;;;5030319;28;20076;-46
2023/05/12 04:30:34;;;;;;;69.15;36.70;;;11.60;99.90;;;;;;5031860;28;20124;-42
2023/05/12 04:33:00;;;;;;;69.47;37.20;;;11.70;99.90;;;;;;5028896;28;20802;-44
2023/05/12 04:35:26;;;;;;;65.03;36.80;;;11.70;99.90;;;;;;4999539;28;20045;-43
2023/05/12 04:37:52;;;;;;;66.20;37.30;;;11.70;99.90;;;;;;5025425;28;20057;-40
2023/05/12 04:40:18;;;;;;;71.88;39.13;;;11.80;99.90;;;;;;5031241;28;20041;-46
2023/05/12 04:42:44;;;;;;;70.72;37.90;;;11.80;99.90;;;;;;5028684;28;20510;-44
2023/05/12 04:45:10;;;;;;;66.70;35.75;;;11.80;99.90;;;;;;5032286;28;20087;-38
2023/05/12 04:47:35;;;;;;;64.80;37.70;;;11.80;99.90;;;;;;5031949;28;20102;-41
2023/05/12 04:50:01;;;;;;;56.90;34.70;;;11.80;99.90;;;;;;5030900;28;20041;-44
2023/05/12 04:52:27;;;;;;;66.55;37.03;;;11.80;99.90;;;;;;5031744;28;20045;-40
2023/05/12 04:54:52;;;;;;;64.65;38.00;;;11.90;99.90;;;;;;5030291;28;20045;-41
2023/05/12 04:57:18;;;;;;;62.00;36.80;;;11.90;99.90;;;;;;5017876;28;20086;-42
2023/05/12 04:59:44;;;;;;;64.80;36.85;;;12.00;99.90;;;;;;5030710;28;20170;-39
2023/05/12 05:02:13;;;;;;;71.88;36.33;;;12.00;99.90;;;;;;5031673;28;20155;-41
2023/05/12 05:04:39;;;;;;;58.20;34.50;;;12.00;99.90;;;;;;5031791;28;20378;-41
2023/05/12 05:07:05;;;;;;;63.67;36.60;;;12.10;99.90;;;;;;5024376;28;20094;-39
2023/05/12 05:09:30;;;;;;;58.10;35.35;;;12.10;99.90;;;;;;5011029;28;20042;-42
2023/05/12 05:11:56;;;;;;;62.58;35.85;;;12.10;99.90;;;;;;5011752;28;20465;-43
2023/05/12 05:14:21;;;;;;;60.50;34.80;;;12.10;99.90;;;;;;5011637;28;20114;-41
2023/05/12 05:16:47;;;;;;;61.72;35.88;;;12.20;99.90;;;;;;5011672;28;20117;-37
2023/05/12 05:19:14;;;;;;;59.38;35.40;;;12.20;99.90;;;;;;5010808;28;20481;-43
2023/05/12 05:21:40;;;;;;;64.10;34.80;;;12.30;99.90;;;;;;5011994;28;20628;-42
2023/05/12 05:24:06;;;;;;;54.38;33.97;;;12.30;99.90;;;;;;5015567;28;20195;-42
2023/05/12 05:26:32;;;;;;;56.95;35.70;;;12.30;99.90;;;;;;5014923;28;20053;-49
2023/05/12 05:28:58;;;;;;;50.35;33.00;;;12.30;99.90;;;;;;5014608;28;20041;-41
2023/05/12 05:31:24;;;;;;;55.08;36.05;;;12.30;99.90;;;;;;5014746;28;20392;-43
2023/05/12 05:33:49;;;;;;;54.00;34.85;;;12.40;99.90;;;;;;5007896;28;20602;-39
2023/05/12 05:36:15;;;;;;;65.57;37.67;;;12.40;99.90;;;;;;5009770;28;20223;-43
2023/05/12 05:38:41;;;;;;;54.78;34.72;;;12.50;99.90;;;;;;5034082;28;20088;-39
2023/05/12 05:41:07;;;;;;;59.78;34.78;;;12.50;99.90;;;;;;5030110;28;20054;-47
2023/05/12 05:43:33;;;;;;;49.55;33.42;;;12.50;99.90;;;;;;5015366;28;20102;-43
2023/05/12 05:45:58;;;;;;;51.70;35.58;;;12.60;99.90;;;;;;5014043;28;20049;-40
2023/05/12 05:48:24;;;;;;;57.90;35.38;;;12.60;99.90;;;;;;5014685;28;20053;-41
2023/05/12 05:50:51;;;;;;;53.15;34.35;;;12.70;99.90;;;;;;5014557;28;20049;-52
2023/05/12 05:53:17;;;;;;;49.97;33.78;;;12.70;99.90;;;;;;5022835;28;20124;-44
2023/05/12 05:55:43;;;;;;;49.08;32.95;;;12.80;99.90;;;;;;5034464;28;20470;-40
2023/05/12 05:58:09;;;;;;;47.67;32.78;;;12.80;99.90;;;;;;5034115;28;20045;-41
2023/05/12 06:00:35;;;;;;;51.28;32.75;;;12.80;99.90;;;;;;5033888;28;20501;-42
2023/05/12 06:03:01;;;;;;;48.08;32.55;;;12.80;99.90;;;;;;5034603;28;20390;-53
2023/05/12 06:05:26;;;;;;;46.40;32.03;;;12.90;99.90;;;;;;5034181;28;20045;-38
2023/05/12 06:07:52;;;;;;;47.50;33.85;;;12.90;99.90;;;;;;5020307;28;20426;-49
2023/05/12 06:10:18;;;;;;;45.55;32.97;;;12.90;99.90;;;;;;5014708;28;20478;-39
2023/05/12 06:12:44;;;;;;;45.40;32.65;;;13.00;99.90;;;;;;5034145;28;20507;-39
2023/05/12 06:15:10;;;;;;;54.38;33.25;;;13.00;99.90;;;;;;5033865;28;20522;-47
2023/05/12 06:17:36;;;;;;;49.30;33.83;;;13.00;99.90;;;;;;5034276;28;20053;-43
2023/05/12 06:20:04;;;;;;;45.63;33.92;;;12.90;99.90;;;;;;5033003;28;20047;-46
2023/05/12 06:22:30;;;;;;;44.17;31.45;;;12.90;99.90;;;;;;5034447;28;20052;-44
2023/05/12 06:24:55;;;;;;;41.67;29.85;;;12.90;99.90;;;;;;5033531;28;20304;-43
2023/05/12 06:27:21;;;;;;;47.22;33.90;;;13.00;99.90;;;;;;5025729;28;20056;-43
2023/05/12 06:29:47;;;;;;;47.75;33.13;;;13.00;99.90;;;;;;5012612;28;20480;-40
2023/05/12 06:32:13;;;;;;;47.10;32.20;;;13.10;99.90;;;;;;5013596;28;20050;-45
2023/05/12 06:34:39;;;;;;;43.40;31.85;;;13.10;99.90;;;;;;5001016;28;20230;-43
2023/05/12 06:37:05;;;;;;;45.28;31.33;;;13.20;99.90;;;;;;5034212;28;20101;-41
2023/05/12 06:39:31;;;;;;;43.17;31.02;;;13.20;99.90;;;;;;5032772;28;20539;-42
2023/05/12 06:41:56;;;;;;;45.70;31.77;;;13.20;99.90;;;;;;5004606;28;20404;-39
2023/05/12 06:44:22;;;;;;;42.55;30.17;;;13.20;99.90;;;;;;5013509;28;20555;-42
2023/05/12 06:46:48;;;;;;;43.40;32.22;;;13.20;99.90;;;;;;5013926;28;20045;-41
2023/05/12 06:49:14;;;;;;;43.47;31.15;;;13.30;99.90;;;;;;5027182;28;20084;-40
2023/05/12 06:51:39;;;;;;;41.75;32.03;;;13.20;99.90;;;;;;5012174;28;20053;-46
2023/05/12 06:54:06;;;;;;;38.78;29.73;;;13.30;99.90;;;;;;5012858;28;20187;-40
2023/05/12 06:56:31;;;;;;;41.17;31.10;;;13.40;99.90;;;;;;5011851;28;20069;-51
2023/05/12 06:59:01;;;;;;;38.30;31.27;;;13.40;99.90;;;;;;5012664;27;20058;-40
2023/05/12 07:01:31;;;;;;;44.35;31.85;;;13.40;99.90;;;;;;5014255;28;20037;-48
2023/05/12 07:03:57;;;;;;;38.95;29.27;;;13.40;99.90;;;;;;5015492;28;20471;-38
2023/05/12 07:06:26;;;;;;;36.60;30.38;;;13.40;99.90;;;;;;5013805;28;20058;-41
2023/05/12 07:08:52;;;;;;;39.78;30.60;;;13.50;99.90;;;;;;5014495;28;20473;-40
2023/05/12 07:11:19;;;;;;;38.83;31.05;;;13.50;99.90;;;;;;5023883;28;20053;-43
2023/05/12 07:13:49;;;;;;;39.15;31.17;;;13.50;99.90;;;;;;5040050;27;20053;-40
2023/05/12 07:16:15;;;;;;;43.38;30.88;;;13.60;99.90;;;;;;5033702;28;20087;-39
2023/05/12 07:18:42;;;;;;;38.58;30.85;;;13.60;99.90;;;;;;5028623;28;20050;-49
2023/05/12 07:21:08;;;;;;;44.80;32.22;;;13.60;99.90;;;;;;5014215;28;20053;-45
2023/05/12 07:23:34;;;;;;;37.28;30.45;;;13.70;99.90;;;;;;5030051;28;20080;-43
2023/05/12 07:26:01;;;;;;;43.13;31.20;;;13.80;99.90;;;;;;5033624;28;20049;-40
2023/05/12 07:28:34;;;;;;;42.25;30.83;;;13.70;99.90;;;;;;5015305;28;20045;-42
2023/05/12 07:31:01;;;;;;;;;;;13.70;99.90;;;;;;5033325;28;20052;-43
2023/05/12 07:33:27;;;;;;;38.60;30.70;;;13.80;99.90;;;;;;5021315;28;19925;-42
2023/05/12 07:35:52;;;;;;;41.80;32.05;;;13.80;99.90;;;;;;5012504;28;20437;-47
2023/05/12 07:38:18;;;;;;;39.92;29.67;;;13.80;99.90;;;;;;5014718;28;20045;-50
2023/05/12 07:40:44;;;;;;;39.63;31.48;;;13.70;99.90;;;;;;5013418;28;20128;-50
2023/05/12 07:43:10;;;;;;;45.28;32.70;;;13.80;99.90;;;;;;5026441;28;20816;-45
2023/05/12 07:45:36;;;;;;;39.13;32.20;;;13.70;99.90;;;;;;5019915;28;22090;-49
2023/05/12 07:48:02;;;;;;;38.38;30.60;;;13.70;99.90;;;;;;5011696;28;20171;-51
2023/05/12 07:50:28;;;;;;;39.08;31.77;;;13.70;99.90;;;;;;5010137;28;20041;-36
2023/05/12 07:52:54;;;;;;;42.25;32.72;;;13.60;99.90;;;;;;5012069;28;20061;-42
2023/05/12 07:55:21;;;;;;;43.70;33.35;;;13.60;99.90;;;;;;5012391;28;20042;-43
2023/05/12 07:57:48;;;;;;;44.17;33.40;;;13.50;99.90;;;;;;5028729;28;20530;-46
2023/05/12 08:00:14;;;;;;;44.92;33.67;;;13.50;99.90;;;;;;5032424;28;20041;-40
2023/05/12 08:02:41;;;;;;;38.97;32.08;;;13.50;99.90;;;;;;5000575;28;20045;-47
2023/05/12 08:05:08;;;;;;;46.88;33.63;;;13.50;99.90;;;;;;4997730;28;20048;-43
2023/05/12 08:07:35;;;;;;;42.13;33.45;;;13.50;99.90;;;;;;4999778;28;20061;-40
2023/05/12 08:10:03;;;;;;;43.25;32.88;;;13.60;99.90;;;;;;4997022;28;20056;-40
2023/05/12 08:12:28;;;;;;;42.22;34.47;;;13.60;99.90;;;;;;4993051;28;20518;-38
2023/05/12 08:14:54;;;;;;;39.40;32.47;;;13.70;99.90;;;;;;5001649;28;20056;-43
2023/05/12 08:17:19;;;;;;;39.13;34.13;;;13.80;99.90;;;;;;4998936;28;20364;-40
2023/05/12 08:19:45;;;;;;;41.60;34.85;;;13.90;99.90;;;;;;4994959;28;20141;-48
2023/05/12 08:22:11;;;;;;;38.38;34.10;;;14.00;99.90;;;;;;4999278;28;20053;-44
2023/05/12 08:24:36;;;;;;;43.10;36.45;;;14.10;99.90;;;;;;4995086;28;20057;-43
2023/05/12 08:27:02;;;;;;;39.75;34.10;;;14.20;99.90;;;;;;4994198;28;20041;-48
2023/05/12 08:29:28;;;;;;;42.53;35.20;;;14.30;99.90;;;;;;4998071;28;20053;-40
2023/05/12 08:31:54;;;;;;;43.55;34.83;;;14.40;99.90;;;;;;4997341;28;20170;-48
2023/05/12 08:34:19;;;;;;;40.25;33.72;;;14.60;99.90;;;;;;4995355;28;20324;-40
2023/05/12 08:36:45;;;;;;;40.67;33.63;;;14.90;99.90;;;;;;4993660;28;20057;-46
2023/05/12 08:39:11;;;;;;;40.17;33.50;;;15.10;99.90;;;;;;4991143;28;20459;-43
2023/05/12 08:41:55;;;;;;;33.78;30.15;;;15.50;99.90;;;;;;4995500;28;20618;-51
2023/05/12 08:44:23;;;;;;;37.33;32.03;;;15.80;99.90;;;;;;4997362;28;20407;-39
2023/05/12 08:46:50;;;;;;;39.15;31.63;;;16.20;99.90;;;;;;4995601;28;20281;-37
2023/05/12 08:49:16;;;;;;;36.63;32.72;;;16.50;99.90;;;;;;5010122;28;20048;-41
2023/05/12 08:51:44;;;;;;;36.10;31.30;;;16.80;99.90;;;;;;5011322;28;20049;-46
2023/05/12 08:54:11;;;;;;;34.33;30.70;;;17.10;99.90;;;;;;5012415;28;20042;-43
2023/05/12 08:56:39;;;;;;;31.92;28.33;;;17.30;99.90;;;;;;5015013;28;20177;-51
2023/05/12 08:59:08;;;;;;;33.90;29.80;;;17.50;99.90;;;;;;5014966;28;20042;-40
2023/05/12 09:01:34;;;;;;;34.40;30.70;;;17.80;99.90;;;;;;5015005;28;20066;-46
2023/05/12 09:04:01;;;;;;;29.55;26.52;;;18.00;99.90;;;;;;5016002;28;20056;-44
2023/05/12 09:06:27;;;;;;;31.13;27.85;;;18.20;99.90;;;;;;5026658;28;20045;-45
2023/05/12 09:08:53;;;;;;;31.02;27.77;;;18.30;99.90;;;;;;5017598;28;20092;-40
2023/05/12 09:11:20;;;;;;;30.98;27.85;;;18.30;99.90;;;;;;5036131;28;20506;-43
2023/05/12 09:14:03;;;;;;;29.05;26.13;;;18.50;99.90;;;;;;5035546;28;20132;-48
2023/05/12 09:16:40;;;;;;;28.67;25.77;;;18.70;99.90;;;;;;5036808;28;20049;-38
2023/05/12 09:19:05;;;;;;;30.27;27.10;;;18.70;99.90;;;;;;5034544;28;20128;-42
2023/05/12 09:21:32;;;;;;;27.80;24.73;;;18.70;99.90;;;;;;5035504;28;20509;-49
2023/05/12 09:24:05;;;;;;;30.80;27.60;;;18.80;99.90;;;;;;5035502;28;20082;-42
2023/05/12 09:26:43;;;;;;;28.48;25.65;;;18.80;99.90;;;;;;5025234;28;20541;-43
2023/05/12 09:29:10;;;;;;;29.85;26.75;;;18.80;99.90;;;;;;5012815;28;20105;-39
2023/05/12 09:31:36;;;;;;;31.02;27.83;;;18.80;99.90;;;;;;5026889;28;20049;-47
2023/05/12 09:34:07;;;;;;;28.98;26.02;;;18.90;99.90;;;;;;5005685;28;20081;-51
2023/05/12 09:36:33;;;;;;;29.17;26.10;;;19.00;99.90;;;;;;5028531;28;20092;-45
2023/05/12 09:39:03;;;;;;;29.95;27.00;;;19.10;99.90;;;;;;5033881;28;20521;-40
2023/05/12 09:41:29;;;;;;;29.75;26.23;;;19.30;99.90;;;;;;5022210;28;20108;-45
2023/05/12 09:43:55;;;;;;;30.15;27.08;;;19.40;99.90;;;;;;5014520;28;20080;-38
2023/05/12 09:46:23;;;;;;;26.23;23.60;;;19.50;99.90;;;;;;5027951;28;20971;-43
2023/05/12 09:48:49;;;;;;;27.50;24.83;;;19.60;99.90;;;;;;5030963;28;20045;-47
2023/05/12 09:51:17;;;;;;;27.23;24.60;;;19.70;99.90;;;;;;5013784;28;20153;-44
2023/05/12 09:53:45;;;;;;;26.85;24.25;;;19.70;99.90;;;;;;5014213;28;20058;-44
2023/05/12 09:56:15;;;;;;;30.00;27.00;;;19.90;99.90;;;;;;5012867;28;20113;-43
2023/05/12 09:58:43;;;;;;;32.13;29.10;;;19.80;99.90;;;;;;5010774;28;20054;-51
2023/05/12 10:01:13;;;;;;;28.15;25.30;;;19.90;99.90;;;;;;5019715;28;20410;-43
2023/05/12 10:03:46;;;;;;;27.50;25.02;;;20.10;99.90;;;;;;5027977;28;20098;-44
2023/05/12 10:06:27;;;;;;;29.33;26.63;;;20.30;99.90;;;;;;5026149;28;20178;-45
2023/05/12 10:09:02;;;;;;;27.05;24.50;;;20.40;99.90;;;;;;5010077;28;20048;-48
2023/05/12 10:11:28;;;;;;;27.38;24.75;;;20.40;99.90;;;;;;5015159;28;20050;-42
2023/05/12 10:13:55;;;;;;;28.00;25.30;;;20.20;99.90;;;;;;5032846;28;20406;-45
2023/05/12 10:16:21;;;;;;;28.55;25.90;;;20.40;99.90;;;;;;5034492;28;20109;-39
2023/05/12 10:18:48;;;;;;;29.95;27.15;;;20.40;99.90;;;;;;5031774;28;20485;-45
2023/05/12 10:21:15;;;;;;;27.08;24.58;;;20.50;99.90;;;;;;5034576;28;20511;-40
2023/05/12 10:23:43;;;;;;;25.90;23.55;;;20.50;99.90;;;;;;5032924;28;20053;-48
2023/05/12 10:26:10;;;;;;;28.90;26.23;;;20.50;99.90;;;;;;5033816;28;20049;-50
2023/05/12 10:28:36;;;;;;;25.67;23.45;;;20.60;99.90;;;;;;5015068;28;20124;-39
2023/05/12 10:31:06;;;;;;;26.58;24.08;;;20.50;99.90;;;;;;5016215;28;20140;-53
2023/05/12 10:33:32;;;;;;;28.52;25.65;;;20.60;99.90;;;;;;5013555;28;20050;-50
2023/05/12 10:35:58;;;;;;;29.27;26.73;;;20.60;99.90;;;;;;5014077;28;20113;-48
2023/05/12 10:38:24;;;;;;;28.25;25.27;;;20.70;99.90;;;;;;5031377;28;20049;-50
2023/05/12 10:41:00;;;;;;;30.23;27.45;;;20.90;99.90;;;;;;5014734;28;20064;-42
2023/05/12 10:43:31;;;;;;;27.02;24.50;;;21.10;99.90;;;;;;5010639;28;20106;-42
2023/05/12 10:46:15;;;;;;;20.98;18.98;;;21.10;99.90;;;;;;5015439;28;20053;-40
2023/05/12 10:48:55;;;;;;;23.48;21.25;;;21.30;99.90;;;;;;5032093;28;20044;-37
2023/05/12 10:51:22;;;;;;;24.95;22.73;;;21.30;99.90;;;;;;5033158;28;20045;-49
2023/05/12 10:53:59;;;;;;;24.05;21.95;;;21.40;99.90;;;;;;5032739;28;20076;-43
2023/05/12 10:56:38;;;;;;;21.92;19.65;;;21.30;99.90;;;;;;5033988;28;20124;-46
2023/05/12 10:59:17;;;;;;;23.13;21.02;;;21.30;99.90;;;;;;5011854;28;20103;-44
2023/05/12 11:02:15;;;;;;;22.13;20.02;;;21.30;99.90;;;;;;5013202;28;20053;-50
2023/05/12 11:04:49;;;;;;;24.75;22.58;;;21.40;99.90;;;;;;5013343;28;20175;-41
2023/05/12 11:07:20;;;;;;;22.40;20.38;;;21.50;99.90;;;;;;5008648;28;20060;-41
2023/05/12 11:09:47;;;;;;;26.15;23.63;;;21.40;99.90;;;;;;5010587;28;20495;-48
2023/05/12 11:12:13;;;;;;;24.52;22.42;;;21.60;99.90;;;;;;5012922;28;20132;-41
2023/05/12 11:14:41;;;;;;;25.73;23.33;;;21.60;99.90;;;;;;5010977;28;20399;-50
2023/05/12 11:17:08;;;;;;;26.05;23.73;;;21.60;99.90;;;;;;5011081;28;20071;-46
2023/05/12 11:19:34;;;;;;;24.65;22.45;;;21.70;99.90;;;;;;5011362;28;20109;-47
2023/05/12 11:22:11;;;;;;;23.85;21.60;;;21.60;99.90;;;;;;5012225;28;20394;-52
2023/05/12 11:24:38;;;;;;;24.08;21.70;;;21.60;99.90;;;;;;5013907;28;20053;-44
2023/05/12 11:27:05;;;;;;;21.35;19.55;;;21.60;99.90;;;;;;5013719;28;20267;-45
2023/05/12 11:29:39;;;;;;;23.65;21.40;;;21.70;99.90;;;;;;5012484;28;20045;-41
2023/05/12 11:32:09;;;;;;;24.33;22.00;;;21.80;99.90;;;;;;5013419;28;20092;-54
2023/05/12 11:34:34;;;;;;;23.40;21.35;;;21.70;99.90;;;;;;5000024;28;20121;-49
2023/05/12 11:37:02;;;;;;;22.50;20.45;;;21.80;99.90;;;;;;5026266;28;20053;-42
2023/05/12 11:39:32;;;;;;;23.75;21.48;;;21.80;99.90;;;;;;5025623;28;20052;-40
2023/05/12 11:42:08;;;;;;;23.00;20.90;;;21.90;99.90;;;;;;5020588;28;20084;-44
2023/05/12 11:44:34;;;;;;;22.85;20.85;;;22.00;99.90;;;;;;5031064;28;20060;-50
2023/05/12 11:47:04;;;;;;;23.38;21.17;;;22.10;99.90;;;;;;5032012;28;20049;-46
2023/05/12 11:49:31;;;;;;;21.42;19.25;;;22.20;99.90;;;;;;5030623;28;20076;-48
2023/05/12 11:52:00;;;;;;;20.77;18.98;;;22.20;99.90;;;;;;5029056;28;20052;-45
2023/05/12 11:54:28;;;;;;;22.27;20.25;;;22.20;99.90;;;;;;5012874;28;20050;-45
2023/05/12 11:56:55;;;;;;;20.73;18.80;;;21.90;99.90;;;;;;5012835;28;20056;-45
2023/05/12 11:59:33;;;;;;;20.10;18.05;;;21.80;99.90;;;;;;5011079;28;20045;-47
2023/05/12 12:02:01;;;;;;;18.15;16.35;;;21.70;99.90;;;;;;5013187;28;20130;-39
2023/05/12 12:04:39;;;;;;;17.02;15.48;;;21.80;99.90;;;;;;5010342;28;20112;-40
2023/05/12 12:07:06;;;;;;;17.55;16.05;;;21.90;99.90;;;;;;5022045;28;20601;-45
2023/05/12 12:09:39;;;;;;;16.40;14.95;;;21.90;99.90;;;;;;5012125;28;20045;-55
2023/05/12 12:12:06;;;;;;;16.88;15.15;;;22.00;99.90;;;;;;5027927;28;20550;-47
2023/05/12 12:14:34;;;;;;;15.43;14.13;;;21.90;99.90;;;;;;5033084;28;20102;-50
2023/05/12 12:17:00;;;;;;;14.73;13.43;;;21.90;99.90;;;;;;5032841;28;20084;-42
2023/05/12 12:19:27;;;;;;;15.10;13.77;;;21.80;99.90;;;;;;5030183;28;20437;-45
2023/05/12 12:21:57;;;;;;;16.92;15.30;;;21.80;99.90;;;;;;5030812;28;20051;-45
2023/05/12 12:24:23;;;;;;;17.10;15.43;;;21.90;99.90;;;;;;5011126;28;20134;-49
2023/05/12 12:26:49;;;;;;;18.05;16.35;;;21.90;99.90;;;;;;5010557;28;20045;-41
2023/05/12 12:29:15;;;;;;;14.57;13.18;;;21.90;99.90;;;;;;5011379;28;20045;-45